sensor_id;sensor_type;location;lat;lon;timestamp;P1;durP1;ratioP1;P2;durP2;ratioP2
24145;SDS011;12308;50.948;4.706;2022-12-18T00:01:40;109.97;;;44.00;;
24145;SDS011;12308;50.948;4.706;2022-12-18T00:04:07;102.30;;;42.00;;
24145;SDS011;12308;50.948;4.706;2022-12-18T00:06:39;110.28;;;43.65;;
24145;SDS011;12308;50.948;4.706;2022-12-18T00:09:05;111.85;;;43.50;;
24145;SDS011;12308;50.948;4.706;2022-12-18T00:11:31;111.78;;;43.92;;
24145;SDS011;12308;50.948;4.706;2022-12-18T00:13:57;110.25;;;45.03;;
24145;SDS011;12308;50.948;4.706;2022-12-18T00:16:24;111.72;;;43.63;;
24145;SDS011;12308;50.948;4.706;2022-12-18T00:18:52;115.05;;;44.22;;
24145;SDS011;12308;50.948;4.706;2022-12-18T00:21:19;112.65;;;44.42;;
24145;SDS011;12308;50.948;4.706;2022-12-18T00:23:46;111.50;;;45.53;;
24145;SDS011;12308;50.948;4.706;2022-12-18T00:26:14;117.15;;;46.22;;
24145;SDS011;12308;50.948;4.706;2022-12-18T00:28:42;117.45;;;46.15;;
24145;SDS011;12308;50.948;4.706;2022-12-18T00:31:09;122.60;;;47.03;;
24145;SDS011;12308;50.948;4.706;2022-12-18T00:33:37;110.15;;;45.80;;
24145;SDS011;12308;50.948;4.706;2022-12-18T00:36:13;120.05;;;48.47;;
24145;SDS011;12308;50.948;4.706;2022-12-18T00:38:40;118.25;;;45.17;;
24145;SDS011;12308;50.948;4.706;2022-12-18T00:41:09;119.75;;;45.90;;
24145;SDS011;12308;50.948;4.706;2022-12-18T00:43:36;112.35;;;44.63;;
24145;SDS011;12308;50.948;4.706;2022-12-18T00:46:02;118.75;;;44.15;;
24145;SDS011;12308;50.948;4.706;2022-12-18T00:48:28;111.63;;;44.60;;
24145;SDS011;12308;50.948;4.706;2022-12-18T00:50:54;107.55;;;44.92;;
24145;SDS011;12308;50.948;4.706;2022-12-18T00:53:20;106.57;;;42.65;;
24145;SDS011;12308;50.948;4.706;2022-12-18T00:55:46;110.78;;;43.58;;
24145;SDS011;12308;50.948;4.706;2022-12-18T00:58:13;100.90;;;41.22;;
24145;SDS011;12308;50.948;4.706;2022-12-18T01:00:40;102.72;;;42.72;;
24145;SDS011;12308;50.948;4.706;2022-12-18T01:03:06;107.28;;;41.38;;
24145;SDS011;12308;50.948;4.706;2022-12-18T01:05:31;103.63;;;41.30;;
24145;SDS011;12308;50.948;4.706;2022-12-18T01:07:58;106.60;;;41.78;;
24145;SDS011;12308;50.948;4.706;2022-12-18T01:10:24;106.18;;;42.95;;
24145;SDS011;12308;50.948;4.706;2022-12-18T01:12:50;97.15;;;41.58;;
24145;SDS011;12308;50.948;4.706;2022-12-18T01:15:16;105.05;;;41.80;;
24145;SDS011;12308;50.948;4.706;2022-12-18T01:17:43;97.20;;;39.88;;
24145;SDS011;12308;50.948;4.706;2022-12-18T01:20:09;104.47;;;40.78;;
24145;SDS011;12308;50.948;4.706;2022-12-18T01:22:35;97.93;;;41.38;;
24145;SDS011;12308;50.948;4.706;2022-12-18T01:25:01;100.97;;;41.72;;
24145;SDS011;12308;50.948;4.706;2022-12-18T01:27:28;100.85;;;40.28;;
24145;SDS011;12308;50.948;4.706;2022-12-18T01:29:53;108.25;;;42.40;;
24145;SDS011;12308;50.948;4.706;2022-12-18T01:32:19;104.68;;;41.20;;
24145;SDS011;12308;50.948;4.706;2022-12-18T01:34:45;99.85;;;39.33;;
24145;SDS011;12308;50.948;4.706;2022-12-18T01:37:11;101.57;;;38.75;;
24145;SDS011;12308;50.948;4.706;2022-12-18T01:39:36;94.72;;;38.88;;
24145;SDS011;12308;50.948;4.706;2022-12-18T01:42:02;94.50;;;38.92;;
24145;SDS011;12308;50.948;4.706;2022-12-18T01:47:26;98.95;;;41.33;;
24145;SDS011;12308;50.948;4.706;2022-12-18T01:49:59;95.93;;;39.03;;
24145;SDS011;12308;50.948;4.706;2022-12-18T01:52:35;95.53;;;38.88;;
24145;SDS011;12308;50.948;4.706;2022-12-18T01:55:03;99.38;;;38.42;;
24145;SDS011;12308;50.948;4.706;2022-12-18T01:57:31;93.90;;;39.03;;
24145;SDS011;12308;50.948;4.706;2022-12-18T01:59:59;88.68;;;36.05;;
24145;SDS011;12308;50.948;4.706;2022-12-18T02:04:54;90.80;;;38.78;;
24145;SDS011;12308;50.948;4.706;2022-12-18T02:15:17;103.70;;;40.35;;
24145;SDS011;12308;50.948;4.706;2022-12-18T02:17:54;102.88;;;41.50;;
24145;SDS011;12308;50.948;4.706;2022-12-18T02:20:31;99.57;;;41.08;;
24145;SDS011;12308;50.948;4.706;2022-12-18T02:29:13;104.68;;;41.92;;
24145;SDS011;12308;50.948;4.706;2022-12-18T02:31:41;102.57;;;40.80;;
24145;SDS011;12308;50.948;4.706;2022-12-18T02:34:10;101.53;;;42.80;;
24145;SDS011;12308;50.948;4.706;2022-12-18T02:36:38;100.57;;;41.22;;
24145;SDS011;12308;50.948;4.706;2022-12-18T02:39:05;107.43;;;42.92;;
24145;SDS011;12308;50.948;4.706;2022-12-18T02:41:34;95.45;;;41.45;;
24145;SDS011;12308;50.948;4.706;2022-12-18T02:44:01;102.28;;;43.55;;
24145;SDS011;12308;50.948;4.706;2022-12-18T02:46:43;102.45;;;42.60;;
24145;SDS011;12308;50.948;4.706;2022-12-18T02:51:56;102.63;;;41.53;;
24145;SDS011;12308;50.948;4.706;2022-12-18T02:58:24;101.53;;;41.80;;
24145;SDS011;12308;50.948;4.706;2022-12-18T03:01:01;103.88;;;41.67;;
24145;SDS011;12308;50.948;4.706;2022-12-18T03:08:59;104.10;;;41.25;;
24145;SDS011;12308;50.948;4.706;2022-12-18T03:11:35;101.03;;;40.03;;
24145;SDS011;12308;50.948;4.706;2022-12-18T03:14:23;104.55;;;42.72;;
24145;SDS011;12308;50.948;4.706;2022-12-18T03:16:54;105.18;;;42.33;;
24145;SDS011;12308;50.948;4.706;2022-12-18T03:19:24;100.57;;;42.28;;
24145;SDS011;12308;50.948;4.706;2022-12-18T03:21:55;110.47;;;43.03;;
24145;SDS011;12308;50.948;4.706;2022-12-18T03:24:23;114.97;;;44.90;;
24145;SDS011;12308;50.948;4.706;2022-12-18T03:26:52;110.82;;;43.70;;
24145;SDS011;12308;50.948;4.706;2022-12-18T03:29:22;119.43;;;44.75;;
24145;SDS011;12308;50.948;4.706;2022-12-18T03:32:07;109.80;;;44.05;;
24145;SDS011;12308;50.948;4.706;2022-12-18T03:34:38;111.20;;;44.13;;
24145;SDS011;12308;50.948;4.706;2022-12-18T03:37:06;115.00;;;45.20;;
24145;SDS011;12308;50.948;4.706;2022-12-18T03:39:33;104.72;;;42.88;;
24145;SDS011;12308;50.948;4.706;2022-12-18T03:47:09;114.60;;;44.38;;
24145;SDS011;12308;50.948;4.706;2022-12-18T03:50:05;107.32;;;42.67;;
24145;SDS011;12308;50.948;4.706;2022-12-18T03:52:56;108.35;;;43.63;;
24145;SDS011;12308;50.948;4.706;2022-12-18T03:55:43;101.07;;;40.95;;
24145;SDS011;12308;50.948;4.706;2022-12-18T03:58:11;107.65;;;42.35;;
24145;SDS011;12308;50.948;4.706;2022-12-18T04:00:40;78.18;;;31.52;;
24145;SDS011;12308;50.948;4.706;2022-12-18T04:03:07;106.38;;;41.42;;
24145;SDS011;12308;50.948;4.706;2022-12-18T04:05:34;105.40;;;42.95;;
24145;SDS011;12308;50.948;4.706;2022-12-18T04:08:02;105.47;;;41.60;;
24145;SDS011;12308;50.948;4.706;2022-12-18T04:10:28;112.82;;;45.40;;
24145;SDS011;12308;50.948;4.706;2022-12-18T04:12:57;111.38;;;42.30;;
24145;SDS011;12308;50.948;4.706;2022-12-18T04:15:23;111.82;;;44.80;;
24145;SDS011;12308;50.948;4.706;2022-12-18T04:17:49;110.47;;;45.25;;
24145;SDS011;12308;50.948;4.706;2022-12-18T04:20:15;111.45;;;43.58;;
24145;SDS011;12308;50.948;4.706;2022-12-18T04:22:41;110.95;;;45.92;;
24145;SDS011;12308;50.948;4.706;2022-12-18T04:25:07;115.57;;;46.45;;
24145;SDS011;12308;50.948;4.706;2022-12-18T04:27:33;124.85;;;49.83;;
24145;SDS011;12308;50.948;4.706;2022-12-18T04:29:59;122.63;;;49.10;;
24145;SDS011;12308;50.948;4.706;2022-12-18T04:32:25;118.05;;;47.47;;
24145;SDS011;12308;50.948;4.706;2022-12-18T04:34:50;115.72;;;44.97;;
24145;SDS011;12308;50.948;4.706;2022-12-18T04:37:16;110.57;;;46.28;;
24145;SDS011;12308;50.948;4.706;2022-12-18T04:39:42;116.22;;;45.60;;
24145;SDS011;12308;50.948;4.706;2022-12-18T04:42:07;110.38;;;45.65;;
24145;SDS011;12308;50.948;4.706;2022-12-18T04:44:33;108.80;;;42.72;;
24145;SDS011;12308;50.948;4.706;2022-12-18T04:46:59;112.13;;;45.95;;
24145;SDS011;12308;50.948;4.706;2022-12-18T04:49:24;104.13;;;42.30;;
24145;SDS011;12308;50.948;4.706;2022-12-18T04:51:50;105.53;;;42.60;;
24145;SDS011;12308;50.948;4.706;2022-12-18T04:54:16;108.28;;;43.50;;
24145;SDS011;12308;50.948;4.706;2022-12-18T04:56:42;106.82;;;41.88;;
24145;SDS011;12308;50.948;4.706;2022-12-18T04:59:07;108.72;;;42.30;;
24145;SDS011;12308;50.948;4.706;2022-12-18T05:01:33;115.90;;;43.97;;
24145;SDS011;12308;50.948;4.706;2022-12-18T05:03:59;111.00;;;43.67;;
24145;SDS011;12308;50.948;4.706;2022-12-18T05:06:24;116.75;;;46.72;;
24145;SDS011;12308;50.948;4.706;2022-12-18T05:08:50;120.38;;;46.50;;
24145;SDS011;12308;50.948;4.706;2022-12-18T05:11:16;120.47;;;46.53;;
24145;SDS011;12308;50.948;4.706;2022-12-18T05:13:42;118.97;;;48.33;;
24145;SDS011;12308;50.948;4.706;2022-12-18T05:16:09;112.82;;;45.75;;
24145;SDS011;12308;50.948;4.706;2022-12-18T05:18:35;108.75;;;44.83;;
24145;SDS011;12308;50.948;4.706;2022-12-18T05:21:01;110.22;;;42.65;;
24145;SDS011;12308;50.948;4.706;2022-12-18T05:23:27;109.60;;;43.95;;
24145;SDS011;12308;50.948;4.706;2022-12-18T05:28:20;102.22;;;42.05;;
24145;SDS011;12308;50.948;4.706;2022-12-18T05:30:49;107.95;;;42.83;;
24145;SDS011;12308;50.948;4.706;2022-12-18T05:33:20;107.40;;;41.35;;
24145;SDS011;12308;50.948;4.706;2022-12-18T05:35:50;97.20;;;40.72;;
24145;SDS011;12308;50.948;4.706;2022-12-18T05:38:17;96.75;;;39.17;;
24145;SDS011;12308;50.948;4.706;2022-12-18T05:40:43;98.43;;;38.75;;
24145;SDS011;12308;50.948;4.706;2022-12-18T05:43:09;96.63;;;39.63;;
24145;SDS011;12308;50.948;4.706;2022-12-18T05:45:38;98.75;;;39.13;;
24145;SDS011;12308;50.948;4.706;2022-12-18T05:48:05;96.68;;;38.28;;
24145;SDS011;12308;50.948;4.706;2022-12-18T05:50:35;92.82;;;38.47;;
24145;SDS011;12308;50.948;4.706;2022-12-18T05:53:02;93.00;;;38.80;;
24145;SDS011;12308;50.948;4.706;2022-12-18T05:55:28;86.63;;;37.42;;
24145;SDS011;12308;50.948;4.706;2022-12-18T05:57:54;92.05;;;38.33;;
24145;SDS011;12308;50.948;4.706;2022-12-18T06:00:20;84.93;;;37.45;;
24145;SDS011;12308;50.948;4.706;2022-12-18T06:02:48;101.60;;;41.90;;
24145;SDS011;12308;50.948;4.706;2022-12-18T06:05:14;104.97;;;42.50;;
24145;SDS011;12308;50.948;4.706;2022-12-18T06:07:40;99.53;;;41.28;;
24145;SDS011;12308;50.948;4.706;2022-12-18T06:10:05;97.82;;;39.60;;
24145;SDS011;12308;50.948;4.706;2022-12-18T06:12:31;100.20;;;40.05;;
24145;SDS011;12308;50.948;4.706;2022-12-18T06:14:58;95.03;;;39.78;;
24145;SDS011;12308;50.948;4.706;2022-12-18T06:17:33;98.13;;;41.08;;
24145;SDS011;12308;50.948;4.706;2022-12-18T06:20:00;95.68;;;38.33;;
24145;SDS011;12308;50.948;4.706;2022-12-18T06:22:26;93.07;;;37.20;;
24145;SDS011;12308;50.948;4.706;2022-12-18T06:24:52;88.90;;;37.03;;
24145;SDS011;12308;50.948;4.706;2022-12-18T06:27:18;86.70;;;36.08;;
24145;SDS011;12308;50.948;4.706;2022-12-18T06:29:43;85.80;;;35.15;;
24145;SDS011;12308;50.948;4.706;2022-12-18T06:32:09;90.50;;;35.67;;
24145;SDS011;12308;50.948;4.706;2022-12-18T06:34:36;79.22;;;33.03;;
24145;SDS011;12308;50.948;4.706;2022-12-18T06:37:03;81.80;;;34.17;;
24145;SDS011;12308;50.948;4.706;2022-12-18T06:39:28;80.43;;;34.40;;
24145;SDS011;12308;50.948;4.706;2022-12-18T06:41:54;83.65;;;34.15;;
24145;SDS011;12308;50.948;4.706;2022-12-18T06:44:20;79.68;;;34.97;;
24145;SDS011;12308;50.948;4.706;2022-12-18T06:46:45;77.63;;;34.20;;
24145;SDS011;12308;50.948;4.706;2022-12-18T06:49:11;80.57;;;33.65;;
24145;SDS011;12308;50.948;4.706;2022-12-18T06:51:37;75.13;;;32.63;;
24145;SDS011;12308;50.948;4.706;2022-12-18T06:54:03;82.43;;;34.05;;
24145;SDS011;12308;50.948;4.706;2022-12-18T06:56:28;80.53;;;33.33;;
24145;SDS011;12308;50.948;4.706;2022-12-18T06:58:55;72.00;;;32.22;;
24145;SDS011;12308;50.948;4.706;2022-12-18T07:01:21;79.38;;;32.30;;
24145;SDS011;12308;50.948;4.706;2022-12-18T07:03:50;81.53;;;32.15;;
24145;SDS011;12308;50.948;4.706;2022-12-18T07:06:18;79.18;;;33.50;;
24145;SDS011;12308;50.948;4.706;2022-12-18T07:08:46;73.90;;;31.35;;
24145;SDS011;12308;50.948;4.706;2022-12-18T07:11:12;77.57;;;32.38;;
24145;SDS011;12308;50.948;4.706;2022-12-18T07:13:37;80.07;;;33.30;;
24145;SDS011;12308;50.948;4.706;2022-12-18T07:16:11;76.18;;;32.00;;
24145;SDS011;12308;50.948;4.706;2022-12-18T07:18:38;75.32;;;30.33;;
24145;SDS011;12308;50.948;4.706;2022-12-18T07:21:05;68.68;;;30.77;;
24145;SDS011;12308;50.948;4.706;2022-12-18T07:23:32;72.35;;;32.20;;
24145;SDS011;12308;50.948;4.706;2022-12-18T07:26:09;74.10;;;32.92;;
24145;SDS011;12308;50.948;4.706;2022-12-18T07:28:36;83.97;;;35.22;;
24145;SDS011;12308;50.948;4.706;2022-12-18T07:31:04;84.70;;;34.50;;
24145;SDS011;12308;50.948;4.706;2022-12-18T07:33:31;77.60;;;32.95;;
24145;SDS011;12308;50.948;4.706;2022-12-18T07:36:01;82.00;;;34.35;;
24145;SDS011;12308;50.948;4.706;2022-12-18T07:38:28;83.68;;;34.63;;
24145;SDS011;12308;50.948;4.706;2022-12-18T07:40:54;81.88;;;34.40;;
24145;SDS011;12308;50.948;4.706;2022-12-18T07:43:25;77.07;;;34.03;;
24145;SDS011;12308;50.948;4.706;2022-12-18T07:45:50;79.78;;;32.45;;
24145;SDS011;12308;50.948;4.706;2022-12-18T07:48:16;75.60;;;32.95;;
24145;SDS011;12308;50.948;4.706;2022-12-18T07:50:42;80.38;;;34.33;;
24145;SDS011;12308;50.948;4.706;2022-12-18T07:53:08;92.78;;;38.83;;
24145;SDS011;12308;50.948;4.706;2022-12-18T07:55:33;81.70;;;37.35;;
24145;SDS011;12308;50.948;4.706;2022-12-18T07:58:02;87.45;;;35.00;;
24145;SDS011;12308;50.948;4.706;2022-12-18T08:00:29;78.90;;;33.47;;
24145;SDS011;12308;50.948;4.706;2022-12-18T08:02:55;73.57;;;32.80;;
24145;SDS011;12308;50.948;4.706;2022-12-18T08:05:21;75.13;;;32.08;;
24145;SDS011;12308;50.948;4.706;2022-12-18T08:07:47;71.97;;;31.13;;
24145;SDS011;12308;50.948;4.706;2022-12-18T08:10:13;70.05;;;30.60;;
24145;SDS011;12308;50.948;4.706;2022-12-18T08:12:39;79.80;;;32.35;;
24145;SDS011;12308;50.948;4.706;2022-12-18T08:15:05;69.03;;;30.90;;
24145;SDS011;12308;50.948;4.706;2022-12-18T08:17:31;72.07;;;31.10;;
24145;SDS011;12308;50.948;4.706;2022-12-18T08:19:56;64.38;;;29.67;;
24145;SDS011;12308;50.948;4.706;2022-12-18T08:22:22;66.90;;;30.13;;
24145;SDS011;12308;50.948;4.706;2022-12-18T08:24:48;65.13;;;28.88;;
24145;SDS011;12308;50.948;4.706;2022-12-18T08:27:13;70.22;;;29.45;;
24145;SDS011;12308;50.948;4.706;2022-12-18T08:29:39;63.42;;;28.23;;
24145;SDS011;12308;50.948;4.706;2022-12-18T08:32:05;65.85;;;26.52;;
24145;SDS011;12308;50.948;4.706;2022-12-18T08:34:30;65.35;;;26.13;;
24145;SDS011;12308;50.948;4.706;2022-12-18T08:36:56;64.72;;;26.95;;
24145;SDS011;12308;50.948;4.706;2022-12-18T08:39:21;60.35;;;27.08;;
24145;SDS011;12308;50.948;4.706;2022-12-18T08:41:47;61.83;;;26.58;;
24145;SDS011;12308;50.948;4.706;2022-12-18T08:44:33;55.80;;;25.40;;
24145;SDS011;12308;50.948;4.706;2022-12-18T08:47:05;58.55;;;24.15;;
24145;SDS011;12308;50.948;4.706;2022-12-18T08:49:31;64.63;;;26.63;;
24145;SDS011;12308;50.948;4.706;2022-12-18T08:51:57;63.45;;;25.83;;
24145;SDS011;12308;50.948;4.706;2022-12-18T08:54:23;61.03;;;25.60;;
24145;SDS011;12308;50.948;4.706;2022-12-18T08:56:50;62.65;;;27.17;;
24145;SDS011;12308;50.948;4.706;2022-12-18T08:59:16;69.57;;;28.55;;
24145;SDS011;12308;50.948;4.706;2022-12-18T09:01:42;71.63;;;28.60;;
24145;SDS011;12308;50.948;4.706;2022-12-18T09:04:11;63.15;;;28.10;;
24145;SDS011;12308;50.948;4.706;2022-12-18T09:06:39;72.18;;;30.40;;
24145;SDS011;12308;50.948;4.706;2022-12-18T09:09:06;68.63;;;30.55;;
24145;SDS011;12308;50.948;4.706;2022-12-18T09:11:33;71.22;;;29.70;;
24145;SDS011;12308;50.948;4.706;2022-12-18T09:13:59;78.18;;;31.67;;
24145;SDS011;12308;50.948;4.706;2022-12-18T09:16:26;69.75;;;30.58;;
24145;SDS011;12308;50.948;4.706;2022-12-18T09:18:54;66.30;;;30.85;;
24145;SDS011;12308;50.948;4.706;2022-12-18T09:21:24;67.15;;;28.00;;
24145;SDS011;12308;50.948;4.706;2022-12-18T09:23:52;62.67;;;27.73;;
24145;SDS011;12308;50.948;4.706;2022-12-18T09:26:19;63.80;;;27.20;;
24145;SDS011;12308;50.948;4.706;2022-12-18T09:28:49;69.35;;;28.80;;
24145;SDS011;12308;50.948;4.706;2022-12-18T09:31:16;57.08;;;25.95;;
24145;SDS011;12308;50.948;4.706;2022-12-18T09:33:43;58.67;;;23.75;;
24145;SDS011;12308;50.948;4.706;2022-12-18T09:36:11;46.60;;;21.60;;
24145;SDS011;12308;50.948;4.706;2022-12-18T09:38:39;51.92;;;22.52;;
24145;SDS011;12308;50.948;4.706;2022-12-18T09:41:06;49.22;;;21.23;;
24145;SDS011;12308;50.948;4.706;2022-12-18T09:44:09;66.38;;;27.67;;
24145;SDS011;12308;50.948;4.706;2022-12-18T09:46:37;50.50;;;21.40;;
24145;SDS011;12308;50.948;4.706;2022-12-18T09:49:11;49.95;;;21.70;;
24145;SDS011;12308;50.948;4.706;2022-12-18T09:51:43;49.90;;;21.33;;
24145;SDS011;12308;50.948;4.706;2022-12-18T09:54:20;46.13;;;20.83;;
24145;SDS011;12308;50.948;4.706;2022-12-18T09:56:50;54.72;;;21.48;;
24145;SDS011;12308;50.948;4.706;2022-12-18T10:01:55;40.25;;;18.25;;
24145;SDS011;12308;50.948;4.706;2022-12-18T10:04:21;49.13;;;21.58;;
24145;SDS011;12308;50.948;4.706;2022-12-18T10:14:40;35.05;;;17.08;;
24145;SDS011;12308;50.948;4.706;2022-12-18T10:17:24;39.47;;;17.70;;
24145;SDS011;12308;50.948;4.706;2022-12-18T10:27:56;41.75;;;19.65;;
24145;SDS011;12308;50.948;4.706;2022-12-18T10:30:25;37.30;;;18.73;;
24145;SDS011;12308;50.948;4.706;2022-12-18T10:32:51;35.67;;;18.10;;
24145;SDS011;12308;50.948;4.706;2022-12-18T10:40:31;39.22;;;18.88;;
24145;SDS011;12308;50.948;4.706;2022-12-18T10:43:13;43.22;;;18.67;;
24145;SDS011;12308;50.948;4.706;2022-12-18T10:45:40;42.35;;;18.33;;
24145;SDS011;12308;50.948;4.706;2022-12-18T10:48:19;42.38;;;18.60;;
24145;SDS011;12308;50.948;4.706;2022-12-18T10:50:50;41.15;;;18.83;;
24145;SDS011;12308;50.948;4.706;2022-12-18T10:53:19;39.70;;;19.07;;
24145;SDS011;12308;50.948;4.706;2022-12-18T10:55:53;64.18;;;25.45;;
24145;SDS011;12308;50.948;4.706;2022-12-18T11:03:37;38.00;;;18.80;;
24145;SDS011;12308;50.948;4.706;2022-12-18T11:08:29;38.75;;;19.13;;
24145;SDS011;12308;50.948;4.706;2022-12-18T11:10:54;40.72;;;19.65;;
24145;SDS011;12308;50.948;4.706;2022-12-18T11:13:21;40.13;;;19.10;;
24145;SDS011;12308;50.948;4.706;2022-12-18T11:15:48;37.92;;;19.10;;
24145;SDS011;12308;50.948;4.706;2022-12-18T11:18:16;41.45;;;20.55;;
24145;SDS011;12308;50.948;4.706;2022-12-18T11:21:06;41.97;;;19.63;;
24145;SDS011;12308;50.948;4.706;2022-12-18T11:23:32;40.58;;;20.30;;
24145;SDS011;12308;50.948;4.706;2022-12-18T11:25:59;40.55;;;20.65;;
24145;SDS011;12308;50.948;4.706;2022-12-18T11:28:37;41.13;;;19.33;;
24145;SDS011;12308;50.948;4.706;2022-12-18T11:33:53;52.65;;;22.15;;
24145;SDS011;12308;50.948;4.706;2022-12-18T11:40:13;50.47;;;22.90;;
24145;SDS011;12308;50.948;4.706;2022-12-18T11:44:49;44.42;;;22.05;;
24145;SDS011;12308;50.948;4.706;2022-12-18T11:47:37;49.85;;;23.15;;
24145;SDS011;12308;50.948;4.706;2022-12-18T11:50:26;47.00;;;21.75;;
24145;SDS011;12308;50.948;4.706;2022-12-18T11:52:58;42.20;;;21.23;;
24145;SDS011;12308;50.948;4.706;2022-12-18T11:55:28;44.47;;;23.02;;
24145;SDS011;12308;50.948;4.706;2022-12-18T12:00:41;43.65;;;21.23;;
24145;SDS011;12308;50.948;4.706;2022-12-18T12:09:23;43.58;;;21.45;;
24145;SDS011;12308;50.948;4.706;2022-12-18T12:17:25;47.08;;;20.75;;
24145;SDS011;12308;50.948;4.706;2022-12-18T12:31:10;44.92;;;21.63;;
24145;SDS011;12308;50.948;4.706;2022-12-18T12:36:44;47.10;;;22.80;;
24145;SDS011;12308;50.948;4.706;2022-12-18T12:39:45;48.45;;;23.38;;
24145;SDS011;12308;50.948;4.706;2022-12-18T12:42:20;55.75;;;26.50;;
24145;SDS011;12308;50.948;4.706;2022-12-18T12:45:20;45.50;;;23.88;;
24145;SDS011;12308;50.948;4.706;2022-12-18T12:47:51;41.65;;;21.58;;
24145;SDS011;12308;50.948;4.706;2022-12-18T12:50:19;47.33;;;22.00;;
24145;SDS011;12308;50.948;4.706;2022-12-18T12:52:47;43.55;;;22.95;;
24145;SDS011;12308;50.948;4.706;2022-12-18T12:55:25;46.70;;;22.55;;
24145;SDS011;12308;50.948;4.706;2022-12-18T13:03:46;42.88;;;22.05;;
24145;SDS011;12308;50.948;4.706;2022-12-18T13:09:33;45.30;;;22.38;;
24145;SDS011;12308;50.948;4.706;2022-12-18T13:12:03;47.33;;;24.25;;
24145;SDS011;12308;50.948;4.706;2022-12-18T13:14:54;56.88;;;27.75;;
24145;SDS011;12308;50.948;4.706;2022-12-18T13:17:38;65.82;;;33.13;;
24145;SDS011;12308;50.948;4.706;2022-12-18T13:20:06;67.78;;;32.28;;
24145;SDS011;12308;50.948;4.706;2022-12-18T13:22:37;89.22;;;38.80;;
24145;SDS011;12308;50.948;4.706;2022-12-18T13:41:42;64.82;;;27.23;;
24145;SDS011;12308;50.948;4.706;2022-12-18T13:43:51;74.65;;;30.77;;
24145;SDS011;12308;50.948;4.706;2022-12-18T13:46:27;65.55;;;28.10;;
24145;SDS011;12308;50.948;4.706;2022-12-18T13:51:42;45.30;;;23.75;;
24145;SDS011;12308;50.948;4.706;2022-12-18T13:56:54;45.92;;;23.15;;
24145;SDS011;12308;50.948;4.706;2022-12-18T13:59:20;51.33;;;25.02;;
24145;SDS011;12308;50.948;4.706;2022-12-18T14:01:57;51.75;;;25.40;;
24145;SDS011;12308;50.948;4.706;2022-12-18T14:04:28;53.20;;;26.23;;
24145;SDS011;12308;50.948;4.706;2022-12-18T14:07:05;53.85;;;27.00;;
24145;SDS011;12308;50.948;4.706;2022-12-18T14:09:34;55.25;;;24.95;;
24145;SDS011;12308;50.948;4.706;2022-12-18T14:14:47;48.25;;;23.15;;
24145;SDS011;12308;50.948;4.706;2022-12-18T14:17:14;51.15;;;23.42;;
24145;SDS011;12308;50.948;4.706;2022-12-18T14:19:50;48.78;;;23.02;;
24145;SDS011;12308;50.948;4.706;2022-12-18T14:22:23;49.50;;;25.27;;
24145;SDS011;12308;50.948;4.706;2022-12-18T14:25:13;50.15;;;24.58;;
24145;SDS011;12308;50.948;4.706;2022-12-18T14:27:50;62.25;;;29.88;;
24145;SDS011;12308;50.948;4.706;2022-12-18T14:30:31;56.20;;;26.50;;
24145;SDS011;12308;50.948;4.706;2022-12-18T14:33:03;54.92;;;26.38;;
24145;SDS011;12308;50.948;4.706;2022-12-18T14:36:03;68.38;;;33.92;;
24145;SDS011;12308;50.948;4.706;2022-12-18T14:38:31;62.05;;;28.58;;
24145;SDS011;12308;50.948;4.706;2022-12-18T14:43:41;52.35;;;25.00;;
24145;SDS011;12308;50.948;4.706;2022-12-18T14:49:18;51.60;;;25.40;;
24145;SDS011;12308;50.948;4.706;2022-12-18T14:51:59;59.47;;;27.70;;
24145;SDS011;12308;50.948;4.706;2022-12-18T14:54:27;60.65;;;27.92;;
24145;SDS011;12308;50.948;4.706;2022-12-18T14:59:23;51.72;;;24.75;;
24145;SDS011;12308;50.948;4.706;2022-12-18T15:04:46;62.28;;;27.92;;
24145;SDS011;12308;50.948;4.706;2022-12-18T15:07:19;59.17;;;27.30;;
24145;SDS011;12308;50.948;4.706;2022-12-18T15:12:34;54.00;;;24.95;;
24145;SDS011;12308;50.948;4.706;2022-12-18T15:15:02;57.22;;;25.75;;
24145;SDS011;12308;50.948;4.706;2022-12-18T15:17:29;55.78;;;26.73;;
24145;SDS011;12308;50.948;4.706;2022-12-18T15:20:02;58.80;;;26.55;;
24145;SDS011;12308;50.948;4.706;2022-12-18T15:22:34;58.55;;;26.75;;
24145;SDS011;12308;50.948;4.706;2022-12-18T15:25:02;57.85;;;27.13;;
24145;SDS011;12308;50.948;4.706;2022-12-18T15:27:45;60.55;;;29.30;;
24145;SDS011;12308;50.948;4.706;2022-12-18T15:30:16;62.03;;;29.00;;
24145;SDS011;12308;50.948;4.706;2022-12-18T15:32:49;63.40;;;27.38;;
24145;SDS011;12308;50.948;4.706;2022-12-18T15:37:41;58.88;;;27.13;;
24145;SDS011;12308;50.948;4.706;2022-12-18T15:40:08;66.35;;;28.00;;
24145;SDS011;12308;50.948;4.706;2022-12-18T15:42:41;61.30;;;27.38;;
24145;SDS011;12308;50.948;4.706;2022-12-18T15:45:25;58.30;;;26.70;;
24145;SDS011;12308;50.948;4.706;2022-12-18T15:47:52;63.28;;;28.67;;
24145;SDS011;12308;50.948;4.706;2022-12-18T15:50:17;57.10;;;26.48;;
24145;SDS011;12308;50.948;4.706;2022-12-18T15:52:44;62.50;;;26.20;;
24145;SDS011;12308;50.948;4.706;2022-12-18T15:55:15;56.28;;;25.70;;
24145;SDS011;12308;50.948;4.706;2022-12-18T15:58:01;61.63;;;26.92;;
24145;SDS011;12308;50.948;4.706;2022-12-18T16:00:27;64.07;;;26.45;;
24145;SDS011;12308;50.948;4.706;2022-12-18T16:02:53;61.72;;;27.35;;
24145;SDS011;12308;50.948;4.706;2022-12-18T16:05:19;61.10;;;25.95;;
24145;SDS011;12308;50.948;4.706;2022-12-18T16:07:46;60.97;;;27.27;;
24145;SDS011;12308;50.948;4.706;2022-12-18T16:10:13;61.83;;;25.13;;
24145;SDS011;12308;50.948;4.706;2022-12-18T16:12:39;65.07;;;28.50;;
24145;SDS011;12308;50.948;4.706;2022-12-18T16:15:06;73.25;;;32.78;;
24145;SDS011;12308;50.948;4.706;2022-12-18T16:17:33;145.55;;;47.10;;
24145;SDS011;12308;50.948;4.706;2022-12-18T16:19:58;84.40;;;31.20;;
24145;SDS011;12308;50.948;4.706;2022-12-18T16:22:25;212.95;;;52.72;;
24145;SDS011;12308;50.948;4.706;2022-12-18T16:24:55;285.95;;;66.15;;
24145;SDS011;12308;50.948;4.706;2022-12-18T16:27:22;416.73;;;100.15;;
24145;SDS011;12308;50.948;4.706;2022-12-18T16:29:48;316.70;;;82.72;;
24145;SDS011;12308;50.948;4.706;2022-12-18T16:32:16;221.27;;;62.53;;
24145;SDS011;12308;50.948;4.706;2022-12-18T16:34:43;125.07;;;41.55;;
24145;SDS011;12308;50.948;4.706;2022-12-18T16:37:10;144.65;;;46.70;;
24145;SDS011;12308;50.948;4.706;2022-12-18T16:39:38;215.60;;;66.50;;
24145;SDS011;12308;50.948;4.706;2022-12-18T16:42:08;279.20;;;82.80;;
24145;SDS011;12308;50.948;4.706;2022-12-18T16:44:44;176.15;;;57.63;;
24145;SDS011;12308;50.948;4.706;2022-12-18T16:47:11;108.30;;;39.00;;
24145;SDS011;12308;50.948;4.706;2022-12-18T16:49:37;128.10;;;44.42;;
24145;SDS011;12308;50.948;4.706;2022-12-18T16:52:03;191.18;;;64.10;;
24145;SDS011;12308;50.948;4.706;2022-12-18T16:54:31;97.47;;;37.00;;
24145;SDS011;12308;50.948;4.706;2022-12-18T16:56:59;150.45;;;51.22;;
24145;SDS011;12308;50.948;4.706;2022-12-18T16:59:25;294.13;;;93.47;;
24145;SDS011;12308;50.948;4.706;2022-12-18T17:01:51;156.45;;;57.20;;
24145;SDS011;12308;50.948;4.706;2022-12-18T17:04:17;74.28;;;33.70;;
24145;SDS011;12308;50.948;4.706;2022-12-18T17:06:44;78.57;;;33.53;;